Time;durP1;ratioP1;P1;durP2;ratioP2;P2;SDS_P1;SDS_P2;PMS_P1;PMS_P2;Temp;Humidity;BMP_temperature;BMP_pressure;BME280_temperature;BME280_humidity;BME280_pressure;Samples;Min_cycle;Max_cycle;Signal;HPM_P1;HPM_P2
2021/03/21 00:00:46;;;;;;;3.83;1.38;;;;;;;0.11;100.00;92831.72;4989774;28;20042;-76
2021/03/21 00:03:13;;;;;;;4.97;1.17;;;;;;;0.26;100.00;92850.38;4990791;28;20058;-76
2021/03/21 00:05:40;;;;;;;6.88;3.28;;;;;;;0.33;100.00;92845.47;4990913;28;20055;-76
2021/03/21 00:08:12;;;;;;;8.70;4.53;;;;;;;0.28;100.00;92831.75;5002666;28;20056;-76
2021/03/21 00:10:40;;;;;;;3.45;1.55;;;;;;;0.23;100.00;92825.41;5002073;28;20050;-76
2021/03/21 00:13:06;;;;;;;0.88;0.60;;;;;;;0.36;100.00;92836.78;5004142;28;20050;-76
2021/03/21 00:15:33;;;;;;;1.70;0.77;;;;;;;0.27;100.00;92851.16;5008478;28;20768;-76
2021/03/21 00:17:59;;;;;;;1.33;0.50;;;;;;;0.25;100.00;92851.31;5009267;28;20049;-76
2021/03/21 00:20:29;;;;;;;1.15;0.85;;;;;;;0.26;100.00;92845.31;5009272;28;20049;-76
2021/03/21 00:22:55;;;;;;;2.30;0.88;;;;;;;0.24;100.00;92844.66;5009975;28;20050;-76
2021/03/21 00:25:24;;;;;;;2.92;0.93;;;;;;;-0.05;100.00;92817.31;5009905;28;20041;-77
2021/03/21 00:27:52;;;;;;;0.55;0.32;;;;;;;0.08;100.00;92827.75;5009689;28;21160;-76
2021/03/21 00:30:22;;;;;;;0.90;0.75;;;;;;;0.11;100.00;92826.66;5009824;28;20088;-76
2021/03/21 00:32:48;;;;;;;1.40;0.80;;;;;;;-0.09;100.00;92794.09;5009540;28;20053;-76
2021/03/21 00:35:15;;;;;;;1.77;0.93;;;;;;;-0.12;100.00;92796.13;4996803;28;20105;-77
2021/03/21 00:37:42;;;;;;;2.25;0.88;;;;;;;-0.15;100.00;92799.75;4990466;28;20057;-76
2021/03/21 00:40:13;;;;;;;2.65;0.93;;;;;;;-0.02;100.00;92800.13;4989729;28;20093;-77
2021/03/21 00:42:40;;;;;;;3.88;0.80;;;;;;;-0.13;100.00;92800.41;4990242;28;20046;-77
2021/03/21 00:45:09;;;;;;;3.17;0.70;;;;;;;-0.19;100.00;92794.25;4990084;28;20050;-77
2021/03/21 00:47:36;;;;;;;0.73;0.43;;;;;;;-0.11;100.00;92802.75;4990283;28;20495;-76
2021/03/21 00:50:04;;;;;;;3.10;1.20;;;;;;;-0.11;100.00;92793.47;4989528;28;20046;-77
2021/03/21 00:52:30;;;;;;;2.67;0.60;;;;;;;-0.18;100.00;92807.66;4989470;28;20419;-76
2021/03/21 00:54:57;;;;;;;9.13;0.88;;;;;;;-0.19;100.00;92806.84;4989803;28;20447;-76
2021/03/21 00:57:23;;;;;;;;;;;;;;;-0.06;100.00;92803.91;4989911;28;20057;-76
2021/03/21 00:59:49;;;;;;;2.20;1.10;;;;;;;-0.13;100.00;92802.94;4989532;28;20381;-77
2021/03/21 01:02:16;;;;;;;;;;;;;;;-0.03;100.00;92787.66;4989873;28;20496;-77
2021/03/21 01:04:42;;;;;;;1.02;0.55;;;;;;;-0.24;100.00;92785.56;4989253;28;19925;-77
2021/03/21 01:07:08;;;;;;;1.55;0.88;;;;;;;-0.05;100.00;92808.00;4989615;28;20055;-77
2021/03/21 01:09:35;;;;;;;0.80;0.50;;;;;;;0.08;100.00;92792.41;4989663;28;20054;-76
2021/03/21 01:12:01;;;;;;;6.68;2.05;;;;;;;0.20;100.00;92802.19;4989516;28;20057;-76
2021/03/21 01:14:27;;;;;;;1.40;1.02;;;;;;;0.21;100.00;92797.00;4989950;28;20054;-77
2021/03/21 01:16:54;;;;;;;2.10;0.80;;;;;;;0.17;100.00;92772.19;4990024;28;20055;-77
2021/03/21 01:19:21;;;;;;;;;;;;;;;0.20;100.00;92766.84;4990305;28;20061;-77
2021/03/21 01:21:48;;;;;;;1.25;0.73;;;;;;;0.21;100.00;92766.69;4989690;28;20425;-77
2021/03/21 01:24:16;;;;;;;1.88;0.98;;;;;;;0.33;100.00;92774.72;4989462;28;20059;-77
2021/03/21 01:26:43;;;;;;;2.33;1.02;;;;;;;0.31;100.00;92758.94;4989725;28;20047;-77
2021/03/21 01:29:09;;;;;;;0.43;0.28;;;;;;;0.45;100.00;92795.44;4992899;28;20060;-77
2021/03/21 01:31:36;;;;;;;0.95;0.60;;;;;;;0.45;100.00;92813.13;4993636;28;20050;-77
2021/03/21 01:34:03;;;;;;;2.67;1.23;;;;;;;0.42;100.00;92795.75;4993445;28;20054;-77
2021/03/21 01:36:33;;;;;;;2.13;1.55;;;;;;;0.46;100.00;92791.16;4993423;28;20426;-77
2021/03/21 01:39:01;;;;;;;2.40;1.83;;;;;;;0.57;100.00;92811.06;4993265;28;20054;-77
2021/03/21 01:41:31;;;;;;;2.17;0.98;;;;;;;0.05;100.00;92785.13;4993274;28;20499;-77
2021/03/21 01:43:57;;;;;;;2.10;0.88;;;;;;;0.05;100.00;92785.13;4993446;28;20389;-77
2021/03/21 01:46:40;;;;;;;2.10;1.02;;;;;;;-0.03;100.00;92782.59;4993517;28;20415;-77
2021/03/21 01:49:14;;;;;;;2.08;0.63;;;;;;;0.18;100.00;92763.69;4993365;28;20487;-77
2021/03/21 01:51:42;;;;;;;1.92;1.13;;;;;;;0.25;100.00;92765.44;4993400;28;20488;-77
2021/03/21 01:54:11;;;;;;;1.00;0.60;;;;;;;0.30;100.00;92746.47;4993364;28;20050;-77
2021/03/21 01:56:38;;;;;;;6.38;2.53;;;;;;;0.11;100.00;92733.22;4993259;28;20482;-77
2021/03/21 01:59:08;;;;;;;2.00;0.73;;;;;;;0.35;100.00;92767.78;4992986;28;20085;-77
2021/03/21 02:01:34;;;;;;;2.20;0.88;;;;;;;0.37;100.00;92752.47;4993097;28;20415;-77
2021/03/21 02:04:01;;;;;;;2.22;0.77;;;;;;;0.43;100.00;92748.53;4992723;28;20057;-77
2021/03/21 02:06:42;;;;;;;0.85;0.50;;;;;;;0.48;100.00;92743.78;4992806;28;20050;-77
2021/03/21 02:09:21;;;;;;;0.70;0.50;;;;;;;0.17;100.00;92759.56;4992962;28;20116;-78
2021/03/21 02:12:11;;;;;;;2.08;0.93;;;;;;;0.18;100.00;92751.84;4992859;28;20057;-80
2021/03/21 02:14:45;;;;;;;1.40;0.82;;;;;;;0.01;100.00;92760.34;4992971;28;20042;-78
2021/03/21 02:17:18;;;;;;;3.40;1.52;;;;;;;0.19;100.00;92760.22;4992424;28;20058;-78
2021/03/21 02:20:16;;;;;;;2.63;0.88;;;;;;;0.15;100.00;92749.63;4992584;28;20491;-78
2021/03/21 02:22:48;;;;;;;1.42;0.90;;;;;;;0.29;100.00;92744.88;4949960;28;20046;-78
2021/03/21 02:25:29;;;;;;;1.98;1.00;;;;;;;0.39;100.00;92743.00;4992468;28;20169;-77
2021/03/21 02:28:14;;;;;;;1.13;0.68;;;;;;;0.41;100.00;92753.72;4992709;28;20057;-77
2021/03/21 02:30:45;;;;;;;1.33;0.83;;;;;;;0.43;100.00;92758.63;4992027;28;20058;-79
2021/03/21 02:33:16;;;;;;;1.63;0.93;;;;;;;0.42;100.00;92750.28;4991362;28;20124;-78
2021/03/21 02:35:49;;;;;;;2.97;0.88;;;;;;;0.43;100.00;92761.94;4990971;28;20055;-77
2021/03/21 02:38:23;;;;;;;2.20;0.73;;;;;;;0.29;100.00;92765.91;4991278;28;20050;-78
2021/03/21 02:40:52;;;;;;;1.52;0.93;;;;;;;0.21;100.00;92764.16;4991054;28;20487;-78
2021/03/21 02:43:26;;;;;;;1.25;0.70;;;;;;;0.30;100.00;92762.44;4991279;28;20054;-78
2021/03/21 02:45:58;;;;;;;2.05;1.20;;;;;;;0.39;100.00;92760.69;4991028;28;20052;-78
2021/03/21 02:48:30;;;;;;;2.05;1.05;;;;;;;0.47;100.00;92758.13;4990780;28;20047;-77
2021/03/21 02:51:01;;;;;;;1.20;0.80;;;;;;;0.43;100.00;92751.84;4991203;28;20069;-77
2021/03/21 02:53:32;;;;;;;3.63;2.20;;;;;;;0.44;100.00;92755.16;4988639;28;20046;-78
2021/03/21 02:56:01;;;;;;;2.58;1.20;;;;;;;0.31;100.00;92756.41;4990684;28;20500;-78
2021/03/21 02:58:31;;;;;;;1.00;0.70;;;;;;;0.08;100.00;92746.13;4991194;28;20042;-77
2021/03/21 03:01:04;;;;;;;2.08;0.70;;;;;;;0.15;100.00;92731.16;4990891;28;20054;-78
2021/03/21 03:03:33;;;;;;;1.02;0.77;;;;;;;0.12;100.00;92715.38;4990463;28;20573;-78
2021/03/21 03:06:04;;;;;;;1.75;1.08;;;;;;;0.18;100.00;92720.75;4990811;28;20050;-78
2021/03/21 03:08:38;;;;;;;1.52;0.98;;;;;;;0.49;100.00;92746.16;4990599;28;20057;-78
2021/03/21 03:11:11;;;;;;;2.25;1.15;;;;;;;0.42;100.00;92741.88;4990536;28;20055;-80
2021/03/21 03:13:41;;;;;;;0.80;0.55;;;;;;;0.19;100.00;92743.31;4991187;28;21015;-80
2021/03/21 03:16:22;;;;;;;0.63;0.50;;;;;;;0.13;100.00;92749.00;4990770;28;20088;-80
2021/03/21 03:18:53;;;;;;;0.57;0.43;;;;;;;-0.21;100.00;92734.75;4990870;28;20646;-80
2021/03/21 03:21:34;;;;;;;1.02;0.90;;;;;;;-0.12;100.00;92730.50;4990859;28;20050;-81
2021/03/21 03:24:06;;;;;;;0.75;0.38;;;;;;;-0.20;100.00;92726.22;4990865;28;20120;-79
2021/03/21 03:26:41;;;;;;;1.75;0.77;;;;;;;-0.35;100.00;92736.94;4990257;28;20055;-80
2021/03/21 03:29:13;;;;;;;1.83;1.05;;;;;;;-0.47;100.00;92723.81;4990853;28;20054;-79
2021/03/21 03:31:45;;;;;;;1.75;0.90;;;;;;;-0.43;100.00;92727.63;4969000;28;687364;-80
2021/03/21 03:34:11;;;;;;;0.47;0.40;;;;;;;-0.42;100.00;92734.25;4991768;28;20058;-80
2021/03/21 03:36:38;;;;;;;1.20;1.00;;;;;;;-0.38;100.00;92737.25;4991651;28;20062;-80
2021/03/21 03:39:05;;;;;;;3.42;1.02;;;;;;;-0.34;100.00;92730.16;4991131;28;20050;-79
2021/03/21 03:41:39;;;;;;;7.40;1.40;;;;;;;-0.36;100.00;92730.31;4991044;28;20057;-79
2021/03/21 03:44:19;;;;;;;1.63;0.85;;;;;;;-0.38;100.00;92726.38;4991275;28;20133;-79
2021/03/21 03:46:54;;;;;;;2.83;1.45;;;;;;;-0.37;100.00;92733.78;4991290;28;20047;-81
2021/03/21 03:49:33;;;;;;;1.77;1.50;;;;;;;-0.11;100.00;92748.03;4991004;28;20532;-82
2021/03/21 03:52:12;;;;;;;1.23;0.90;;;;;;;-0.03;100.00;92755.63;4990336;28;20054;-78
2021/03/21 03:54:47;;;;;;;2.92;1.48;;;;;;;-0.02;100.00;92757.19;4991216;28;20050;-78
2021/03/21 03:57:21;;;;;;;7.32;1.67;;;;;;;0.05;100.00;92754.81;4990960;28;20101;-78
2021/03/21 04:00:14;;;;;;;1.17;0.98;;;;;;;-0.01;100.00;92763.81;4990573;28;20051;-79
2021/03/21 04:02:58;;;;;;;1.27;1.02;;;;;;;-0.12;100.00;92751.50;4983113;28;20586;-79
2021/03/21 04:05:28;;;;;;;0.60;0.40;;;;;;;0.01;100.00;92750.25;4990834;28;20049;-78
2021/03/21 04:08:02;;;;;;;1.73;1.08;;;;;;;-0.10;100.00;92741.25;4990989;28;20054;-79
2021/03/21 04:10:35;;;;;;;2.45;1.10;;;;;;;0.08;100.00;92741.88;4990991;28;20046;-81
2021/03/21 04:13:08;;;;;;;1.02;0.70;;;;;;;0.17;100.00;92739.34;4991012;28;20058;-80
2021/03/21 04:15:39;;;;;;;1.25;0.77;;;;;;;0.24;100.00;92741.09;4990593;28;20057;-81
2021/03/21 04:18:12;;;;;;;2.45;1.52;;;;;;;0.23;100.00;92748.84;4990259;28;20046;-79
2021/03/21 04:20:42;;;;;;;1.75;1.40;;;;;;;0.18;100.00;92735.91;4990803;28;20054;-79
2021/03/21 04:23:16;;;;;;;1.30;0.82;;;;;;;0.03;100.00;92738.25;4990364;28;20056;-81
2021/03/21 04:25:49;;;;;;;1.10;0.60;;;;;;;0.07;100.00;92757.19;4989986;28;20065;-81
2021/03/21 04:28:19;;;;;;;2.95;1.17;;;;;;;0.09;100.00;92747.75;4990135;28;20050;-80
2021/03/21 04:30:49;;;;;;;2.83;1.50;;;;;;;0.10;100.00;92759.41;4989996;28;20514;-79
2021/03/21 04:33:19;;;;;;;3.70;2.25;;;;;;;-0.03;100.00;92740.47;4990168;28;20097;-79
2021/03/21 04:35:52;;;;;;;9.32;4.40;;;;;;;-0.17;100.00;92754.50;4990031;28;20133;-79
2021/03/21 04:38:25;;;;;;;2.08;1.50;;;;;;;-0.13;100.00;92744.88;4990379;28;20046;-78
2021/03/21 04:40:52;;;;;;;3.08;1.35;;;;;;;0.10;100.00;92751.84;4990217;28;20069;-79
2021/03/21 04:43:23;;;;;;;2.50;1.23;;;;;;;0.10;100.00;92751.84;4990116;28;20060;-78
2021/03/21 04:45:54;;;;;;;2.13;1.30;;;;;;;0.12;100.00;92757.50;4990157;28;20057;-78
2021/03/21 04:48:24;;;;;;;2.13;1.35;;;;;;;0.09;100.00;92752.78;4989981;28;20051;-78
2021/03/21 04:50:57;;;;;;;3.42;1.90;;;;;;;0.15;100.00;92744.59;4989745;28;20054;-78
2021/03/21 04:53:37;;;;;;;3.35;2.50;;;;;;;0.25;100.00;92739.38;4990158;28;20060;-80
2021/03/21 04:56:11;;;;;;;5.80;3.25;;;;;;;0.32;100.00;92747.13;4989936;28;20058;-79
2021/03/21 04:58:41;;;;;;;4.38;2.95;;;;;;;0.24;100.00;92718.34;4989921;28;20112;-79
2021/03/21 05:01:15;;;;;;;5.00;2.78;;;;;;;0.44;100.00;92743.31;4989479;28;20492;-79
2021/03/21 05:03:45;;;;;;;5.40;4.05;;;;;;;0.59;100.00;92738.41;4989665;28;20061;-79
2021/03/21 05:06:17;;;;;;;5.57;3.83;;;;;;;0.64;100.00;92730.31;4989744;28;20057;-79
2021/03/21 05:08:54;;;;;;;11.30;7.00;;;;;;;0.73;100.00;92743.72;4989814;28;20054;-78
2021/03/21 05:11:21;;;;;;;9.43;5.60;;;;;;;0.71;100.00;92730.47;4989875;28;20066;-79
2021/03/21 05:13:54;;;;;;;4.78;2.88;;;;;;;0.69;100.00;92704.59;4989416;28;20053;-80
2021/03/21 05:16:31;;;;;;;6.47;3.97;;;;;;;0.83;100.00;92713.25;4989602;28;20093;-80
2021/03/21 05:19:08;;;;;;;5.15;3.33;;;;;;;0.84;100.00;92692.84;4989896;28;20415;-79
2021/03/21 05:21:38;;;;;;;6.50;3.47;;;;;;;0.94;100.00;92697.72;4989368;28;20054;-79
2021/03/21 05:24:11;;;;;;;4.60;2.30;;;;;;;0.90;100.00;92702.31;5004464;28;20046;-79
2021/03/21 05:26:43;;;;;;;4.43;2.70;;;;;;;0.84;100.00;92705.50;4996362;28;20046;-79
2021/03/21 05:29:48;;;;;;;4.97;2.67;;;;;;;0.88;100.00;92700.91;5000682;28;20523;-79
2021/03/21 05:32:16;;;;;;;1.83;1.33;;;;;;;0.97;100.00;92719.34;4948337;28;20417;-79
2021/03/21 05:34:44;;;;;;;3.50;2.20;;;;;;;1.02;100.00;92712.84;4948310;29;20047;-79
2021/03/21 05:37:24;;;;;;;3.78;2.10;;;;;;;1.05;100.00;92715.06;4968611;28;20050;-79
2021/03/21 05:40:00;;;;;;;4.63;2.80;;;;;;;1.10;100.00;92716.31;4999616;28;20050;-79
2021/03/21 05:42:51;;;;;;;6.07;2.83;;;;;;;1.05;100.00;92720.13;5001185;28;20050;-79
2021/03/21 05:46:07;;;;;;;6.00;2.17;;;;;;;1.05;100.00;92735.28;4992487;28;20492;-77
2021/03/21 05:49:13;;;;;;;2.88;2.25;;;;;;;1.08;100.00;92734.19;4989234;28;20499;-76
2021/03/21 05:52:13;;;;;;;4.95;2.72;;;;;;;0.96;100.00;92728.69;5005090;28;20404;-78
2021/03/21 05:55:06;;;;;;;8.20;4.00;;;;;;;1.08;100.00;92740.97;5009174;28;20050;-77
2021/03/21 05:58:09;;;;;;;13.73;7.85;;;;;;;1.16;100.00;92740.97;4980710;28;20455;-78
2021/03/21 06:01:07;;;;;;;8.45;3.38;;;;;;;1.23;100.00;92739.34;4989651;28;20047;-79
2021/03/21 06:04:18;;;;;;;6.25;3.58;;;;;;;1.28;100.00;92731.25;4989069;28;20105;-80
2021/03/21 06:07:22;;;;;;;10.98;4.05;;;;;;;1.32;100.00;92725.72;4970725;28;20061;-79
2021/03/21 06:10:21;;;;;;;11.23;5.13;;;;;;;1.43;100.00;92721.25;4989179;28;20409;-80
2021/03/21 06:12:57;;;;;;;9.50;6.03;;;;;;;1.48;100.00;92734.16;4989416;28;20088;-80
2021/03/21 06:16:01;;;;;;;10.45;4.28;;;;;;;1.48;100.00;92734.16;4993168;28;20046;-81
2021/03/21 06:18:41;;;;;;;7.38;5.55;;;;;;;1.53;100.00;92748.88;4999305;28;20054;-80
2021/03/21 06:21:28;;;;;;;4.82;2.80;;;;;;;1.49;100.00;92747.63;4992835;28;20496;-77
2021/03/21 06:24:16;;;;;;;9.80;4.75;;;;;;;1.53;100.00;92752.19;4992814;28;20389;-77
2021/03/21 06:26:44;;;;;;;11.93;4.35;;;;;;;1.52;100.00;92754.91;4992897;28;20644;-76
2021/03/21 06:29:48;;;;;;;10.70;5.18;;;;;;;1.52;100.00;92758.19;4992430;28;20050;-76
2021/03/21 06:32:48;;;;;;;9.98;5.88;;;;;;;1.49;100.00;92750.16;4992720;28;20054;-76
2021/03/21 06:35:35;;;;;;;9.52;5.55;;;;;;;1.53;100.00;92769.91;4992566;28;20057;-76
2021/03/21 06:38:29;;;;;;;8.52;4.63;;;;;;;1.53;100.00;92764.84;4992194;28;20578;-76
2021/03/21 06:41:15;;;;;;;219.10;80.17;;;;;;;1.53;100.00;92766.59;4992570;28;20053;-77
2021/03/21 06:44:05;;;;;;;14.10;6.47;;;;;;;1.53;100.00;92764.84;4992610;28;20474;-77
2021/03/21 06:46:57;;;;;;;7.78;5.22;;;;;;;1.36;100.00;92738.81;4991956;28;20512;-77
2021/03/21 06:49:49;;;;;;;8.50;4.50;;;;;;;1.50;100.00;92755.06;4992155;28;20050;-76
2021/03/21 06:52:39;;;;;;;12.43;5.43;;;;;;;1.57;100.00;92763.56;5005306;28;20423;-77
2021/03/21 06:55:11;;;;;;;6.25;4.50;;;;;;;1.59;100.00;92760.88;5011960;28;20048;-76
2021/03/21 06:58:14;;;;;;;10.20;5.88;;;;;;;1.63;100.00;92746.13;5011221;28;20060;-76
2021/03/21 07:00:59;;;;;;;9.50;5.88;;;;;;;1.58;100.00;92737.28;5011548;28;20064;-76
2021/03/21 07:03:58;;;;;;;;;;;;;;;1.77;100.00;92749.69;5011878;28;20482;-76
2021/03/21 07:07:02;;;;;;;17.02;8.25;;;;;;;1.80;100.00;92756.97;5011386;28;19925;-76
2021/03/21 07:10:03;;;;;;;11.10;7.50;;;;;;;1.90;100.00;92749.16;5011358;28;20057;-76
2021/03/21 07:12:58;;;;;;;6.38;4.68;;;;;;;2.01;100.00;92751.28;4991743;28;20046;-78
2021/03/21 07:15:45;;;;;;;11.63;6.20;;;;;;;1.51;100.00;92680.69;5011518;28;20045;-78
2021/03/21 07:18:44;;;;;;;6.22;4.53;;;;;;;2.13;100.00;92757.53;5010845;28;20140;-77
2021/03/21 07:21:35;;;;;;;12.70;6.82;;;;;;;2.20;100.00;92754.31;5011174;28;20443;-78
2021/03/21 07:24:56;;;;;;;18.35;8.98;;;;;;;2.26;100.00;92751.91;5010886;28;20049;-78
2021/03/21 07:27:50;;;;;;;19.52;9.32;;;;;;;2.34;100.00;92751.06;5011221;28;20050;-79
2021/03/21 07:30:21;;;;;;;12.82;6.80;;;;;;;2.43;100.00;92751.78;5010580;28;20385;-79
2021/03/21 07:33:03;;;;;;;7.93;5.15;;;;;;;2.53;100.00;92754.06;5010843;28;20545;-79
2021/03/21 07:35:42;;;;;;;8.90;5.38;;;;;;;2.57;100.00;92755.31;5010980;28;20060;-80
2021/03/21 07:38:20;;;;;;;16.45;7.45;;;;;;;2.61;100.00;92751.47;5010744;28;20092;-79
2021/03/21 07:40:50;;;;;;;8.98;5.72;;;;;;;2.65;100.00;92746.84;5010977;28;20049;-79
2021/03/21 07:43:45;;;;;;;11.45;6.20;;;;;;;2.70;100.00;92748.88;5010990;28;20061;-80
2021/03/21 07:46:49;;;;;;;9.10;6.20;;;;;;;2.79;100.00;92755.44;5010074;28;20533;-81
2021/03/21 07:49:51;;;;;;;10.43;5.70;;;;;;;2.73;100.00;92740.91;4980321;28;20054;-80
2021/03/21 07:52:56;;;;;;;8.30;5.40;;;;;;;2.93;100.00;92749.59;4988809;28;20110;-80
2021/03/21 07:55:29;;;;;;;8.38;5.22;;;;;;;2.97;100.00;92742.44;4957911;28;20053;-80
2021/03/21 07:58:06;;;;;;;9.82;5.07;;;;;;;2.86;100.00;92735.25;4990923;28;20058;-79
2021/03/21 08:00:33;;;;;;;7.38;4.15;;;;;;;3.02;100.00;92746.97;4990967;28;20051;-79
2021/03/21 08:03:41;;;;;;;7.80;5.43;;;;;;;3.13;100.00;92740.66;4990903;28;20050;-79
2021/03/21 08:06:15;;;;;;;15.40;8.35;;;;;;;3.06;100.00;92733.75;4953988;28;20046;-79
2021/03/21 08:08:47;;;;;;;11.63;6.10;;;;;;;3.10;100.00;92736.72;4990858;28;20053;-80
2021/03/21 08:11:19;;;;;;;10.90;6.40;;;;;;;3.12;100.00;92714.50;4990627;28;20046;-80
2021/03/21 08:13:52;;;;;;;11.45;7.15;;;;;;;3.17;100.00;92724.94;4990995;28;20419;-79
2021/03/21 08:16:25;;;;;;;9.35;6.45;;;;;;;3.30;100.00;92726.84;4990690;28;20093;-79
2021/03/21 08:18:53;;;;;;;7.50;5.25;;;;;;;3.39;100.00;92726.75;4990646;28;20400;-79
2021/03/21 08:21:27;;;;;;;12.75;5.25;;;;;;;3.25;100.00;92711.38;4990701;28;20423;-79
2021/03/21 08:23:57;;;;;;;8.30;4.43;;;;;;;3.19;100.00;92717.13;4990603;28;20415;-80
2021/03/21 08:26:28;;;;;;;8.23;5.45;;;;;;;3.28;100.00;92715.28;4990624;28;20042;-80
2021/03/21 08:29:13;;;;;;;8.43;4.80;;;;;;;3.38;100.00;92725.94;4990744;28;20100;-80
2021/03/21 08:31:42;;;;;;;7.80;4.63;;;;;;;3.40;100.00;92713.06;4990544;28;20058;-80
2021/03/21 08:34:43;;;;;;;7.30;4.03;;;;;;;3.45;100.00;92714.13;4990373;28;20055;-80
2021/03/21 08:37:22;;;;;;;6.55;3.92;;;;;;;3.49;100.00;92701.84;4976667;28;20056;-80
2021/03/21 08:39:52;;;;;;;7.10;4.03;;;;;;;3.58;100.00;92703.34;4990273;28;20112;-80
2021/03/21 08:42:39;;;;;;;15.57;8.40;;;;;;;3.46;100.00;92690.31;4990398;28;20412;-80
2021/03/21 08:45:26;;;;;;;14.60;6.03;;;;;;;3.67;100.00;92704.00;4990101;28;20467;-79
2021/03/21 08:48:14;;;;;;;8.50;5.05;;;;;;;3.77;100.00;92706.25;4989741;28;20058;-80
2021/03/21 08:50:43;;;;;;;7.32;4.20;;;;;;;3.63;100.00;92671.50;4990168;28;20092;-80
2021/03/21 08:53:26;;;;;;;9.68;4.80;;;;;;;4.02;100.00;92705.88;4990254;28;20485;-80
2021/03/21 08:56:11;;;;;;;7.38;4.80;;;;;;;4.10;100.00;92698.16;4989570;28;20554;-80
2021/03/21 08:58:39;;;;;;;6.57;3.97;;;;;;;4.29;100.00;92703.59;4990506;28;20049;-80
2021/03/21 09:01:12;;;;;;;9.73;5.20;;;;;;;4.39;100.00;92693.09;4990163;28;20081;-80
2021/03/21 09:03:38;;;;;;;7.50;5.05;;;;;;;4.40;100.00;92692.13;4990107;28;20046;-79
2021/03/21 09:06:05;;;;;;;8.23;4.40;;;;;;;4.26;100.00;92658.19;4990272;28;20054;-79
2021/03/21 09:08:33;;;;;;;5.40;4.07;;;;;;;4.43;100.00;92686.66;4989796;28;20054;-79
2021/03/21 09:11:01;;;;;;;11.40;4.93;;;;;;;4.55;100.00;92682.63;4990036;28;20141;-78
2021/03/21 09:13:30;;;;;;;6.63;4.70;;;;;;;4.70;100.00;92683.50;4989736;28;20057;-78
2021/03/21 09:16:09;;;;;;;10.05;4.60;;;;;;;4.82;100.00;92676.94;4989983;28;20046;-78
2021/03/21 09:18:37;;;;;;;6.38;4.05;;;;;;;4.79;100.00;92667.13;5004255;28;20076;-78
2021/03/21 09:21:20;;;;;;;8.75;5.20;;;;;;;4.98;100.00;92669.97;5009214;28;20096;-78
2021/03/21 09:23:53;;;;;;;8.35;5.00;;;;;;;5.08;98.27;92672.97;5009319;28;20046;-79
2021/03/21 09:26:31;;;;;;;7.00;5.25;;;;;;;5.28;97.77;92667.94;5009192;28;20046;-79
2021/03/21 09:29:02;;;;;;;8.93;4.13;;;;;;;5.46;97.37;92674.28;5009027;28;20080;-78
2021/03/21 09:31:29;;;;;;;7.40;4.45;;;;;;;5.58;95.41;92682.16;5009472;28;20415;-78
2021/03/21 09:34:01;;;;;;;8.05;4.25;;;;;;;5.73;95.26;92670.03;5009249;28;20041;-78
2021/03/21 09:36:34;;;;;;;6.45;3.92;;;;;;;5.70;94.49;92680.63;5009348;28;20049;-77
2021/03/21 09:39:05;;;;;;;7.15;3.88;;;;;;;5.64;94.25;92689.03;5009421;28;20053;-78
2021/03/21 09:41:31;;;;;;;6.38;4.07;;;;;;;5.50;94.30;92682.34;5009310;28;20116;-77
2021/03/21 09:44:03;;;;;;;4.88;3.13;;;;;;;5.42;94.98;92681.50;5008953;28;20050;-78
2021/03/21 09:46:47;;;;;;;6.47;3.88;;;;;;;5.36;95.93;92661.91;5007974;28;20832;-78
2021/03/21 09:49:19;;;;;;;7.28;3.45;;;;;;;5.46;95.33;92676.84;5011104;28;20124;-78
2021/03/21 09:51:53;;;;;;;6.25;3.15;;;;;;;5.52;95.35;92680.38;4994140;28;20101;-77
2021/03/21 09:54:43;;;;;;;5.70;2.45;;;;;;;5.22;95.38;92654.22;4993449;28;20046;-77
2021/03/21 09:57:50;;;;;;;6.03;4.30;;;;;;;5.37;95.94;92675.44;4993263;28;20108;-77
2021/03/21 10:00:23;;;;;;;5.30;3.20;;;;;;;5.16;96.20;92667.72;4913817;29;20048;-77
2021/03/21 10:03:10;;;;;;;5.53;3.60;;;;;;;4.24;96.91;92584.66;4983245;28;20057;-77
2021/03/21 10:05:43;;;;;;;5.47;3.45;;;;;;;4.71;98.43;92644.41;4994767;28;20081;-78
2021/03/21 10:08:18;;;;;;;6.25;4.43;;;;;;;4.70;100.00;92651.22;4992717;28;20535;-78
2021/03/21 10:10:54;;;;;;;8.55;4.50;;;;;;;4.57;100.00;92666.44;4992790;28;20054;-78
2021/03/21 10:13:31;;;;;;;;;;;;;;;4.43;100.00;92658.69;4993507;28;20046;-77
2021/03/21 10:16:41;;;;;;;6.85;4.38;;;;;;;4.17;100.00;92659.28;4993042;28;20398;-78
2021/03/21 10:19:09;;;;;;;9.35;5.20;;;;;;;4.20;100.00;92648.75;4974710;28;20076;-78
2021/03/21 10:21:41;;;;;;;10.48;6.05;;;;;;;3.93;100.00;92646.78;5012584;28;20049;-78
2021/03/21 10:24:34;;;;;;;9.18;4.60;;;;;;;3.81;100.00;92649.03;5012353;28;20054;-78
2021/03/21 10:27:49;;;;;;;8.43;4.40;;;;;;;3.84;100.00;92647.91;5012603;28;20072;-78
2021/03/21 10:30:25;;;;;;;12.20;6.38;;;;;;;3.66;100.00;92630.53;5007328;28;20605;-77
2021/03/21 10:33:13;;;;;;;;;;;;;;;3.70;100.00;92636.81;5012634;28;20095;-77
2021/03/21 10:35:52;;;;;;;9.45;5.43;;;;;;;3.65;100.00;92639.13;5012266;28;20387;-78
2021/03/21 10:38:48;;;;;;;11.73;6.32;;;;;;;3.64;100.00;92638.31;5012260;28;20111;-78
2021/03/21 10:41:51;;;;;;;10.30;6.88;;;;;;;3.70;100.00;92617.28;5012073;28;20069;-78
2021/03/21 10:44:18;;;;;;;15.50;6.90;;;;;;;3.80;100.00;92627.13;4981100;28;20129;-79
2021/03/21 10:46:51;;;;;;;11.50;6.15;;;;;;;3.78;100.00;92625.72;5012090;28;20054;-78
2021/03/21 10:49:50;;;;;;;12.38;6.30;;;;;;;3.91;100.00;92623.31;5012277;28;20522;-77
2021/03/21 10:52:31;;;;;;;10.93;6.55;;;;;;;4.13;100.00;92629.16;4992404;28;20081;-78
2021/03/21 10:55:33;;;;;;;6.90;4.03;;;;;;;4.16;100.00;92624.69;4992427;28;20073;-78
2021/03/21 10:58:22;;;;;;;5.72;3.85;;;;;;;3.95;100.00;92598.31;4992160;28;20054;-78
2021/03/21 11:01:27;;;;;;;8.43;4.63;;;;;;;4.23;100.00;92616.13;4991835;28;20599;-78
2021/03/21 11:04:21;;;;;;;7.57;4.90;;;;;;;4.14;100.00;92622.31;4976742;28;20054;-77
2021/03/21 11:06:51;;;;;;;8.23;4.32;;;;;;;4.30;100.00;92633.19;4992161;28;20054;-78
2021/03/21 11:09:19;;;;;;;12.80;6.65;;;;;;;4.27;100.00;92617.31;4992146;28;20432;-79
2021/03/21 11:11:48;;;;;;;8.88;4.47;;;;;;;4.24;100.00;92617.69;4991885;28;20050;-78
2021/03/21 11:14:26;;;;;;;11.32;4.47;;;;;;;4.30;100.00;92617.94;4991759;28;20423;-79
2021/03/21 11:16:55;;;;;;;7.82;4.80;;;;;;;4.27;100.00;92598.75;4991841;28;20058;-79
2021/03/21 11:19:23;;;;;;;6.82;4.15;;;;;;;4.24;100.00;92589.72;5011678;28;20642;-79
2021/03/21 11:21:50;;;;;;;5.07;2.90;;;;;;;4.22;100.00;92593.44;5010924;28;20064;-79
2021/03/21 11:24:24;;;;;;;11.10;4.47;;;;;;;3.99;100.00;92572.34;5011372;28;20054;-79
2021/03/21 11:26:50;;;;;;;9.25;4.20;;;;;;;4.16;100.00;92579.69;5010931;28;20062;-79
2021/03/21 11:29:24;;;;;;;;;;;;;;;4.03;100.00;92582.94;5011374;28;20042;-79
2021/03/21 11:31:53;;;;;;;5.93;3.90;;;;;;;3.86;100.00;92564.63;5010849;28;19925;-78
2021/03/21 11:34:21;;;;;;;8.43;4.63;;;;;;;3.87;100.00;92561.91;5011143;28;20052;-79
2021/03/21 11:36:57;;;;;;;7.82;3.75;;;;;;;3.96;100.00;92551.59;5011170;28;20058;-80
2021/03/21 11:39:28;;;;;;;;;;;;;;;3.97;100.00;92560.78;5011474;28;20103;-79
2021/03/21 11:41:54;;;;;;;7.53;4.78;;;;;;;4.01;100.00;92537.38;5010791;28;19928;-79
2021/03/21 11:44:25;;;;;;;12.27;3.97;;;;;;;4.16;100.00;92546.66;5011004;28;20426;-80
2021/03/21 11:46:55;;;;;;;5.95;4.03;;;;;;;4.23;100.00;92524.63;5010830;28;20116;-80
2021/03/21 11:49:24;;;;;;;4.88;3.42;;;;;;;4.50;100.00;92531.59;5010637;28;20412;-81
2021/03/21 11:51:58;;;;;;;7.47;4.53;;;;;;;4.53;100.00;92516.72;5010206;28;20591;-81
2021/03/21 11:54:28;;;;;;;6.30;3.90;;;;;;;4.67;100.00;92532.03;5010687;28;20100;-82
2021/03/21 11:57:06;;;;;;;8.85;4.40;;;;;;;4.85;100.00;92528.19;5010494;28;20196;-83
2021/03/21 11:59:39;;;;;;;9.38;5.28;;;;;;;4.89;100.00;92511.56;5010522;28;20052;-83
2021/03/21 12:02:23;;;;;;;5.93;3.67;;;;;;;5.15;100.00;92515.94;5010617;28;20054;-83
2021/03/21 12:04:50;;;;;;;8.02;3.53;;;;;;;5.27;100.00;92515.38;5010503;28;20057;-83
2021/03/21 12:07:24;;;;;;;5.85;3.42;;;;;;;5.19;100.00;92518.88;5010322;28;20077;-82
2021/03/21 12:09:52;;;;;;;20.15;8.30;;;;;;;5.20;100.00;92511.03;5010121;28;20050;-82
2021/03/21 12:12:37;;;;;;;29.50;12.57;;;;;;;5.13;100.00;92510.25;5009848;28;20058;-83
2021/03/21 12:15:06;;;;;;;23.92;10.77;;;;;;;5.09;100.00;92503.97;5010326;28;20521;-83
2021/03/21 12:17:41;;;;;;;14.77;7.43;;;;;;;5.07;100.00;92491.44;5004174;28;20050;-82
2021/03/21 12:20:37;;;;;;;12.50;8.20;;;;;;;5.16;100.00;92492.03;4990699;28;20116;-81